Time;durP1;ratioP1;P1;durP2;ratioP2;P2;SDS_P1;SDS_P2;PMS_P1;PMS_P2;Temp;Humidity;BMP_temperature;BMP_pressure;BME280_temperature;BME280_humidity;BME280_pressure;Samples;Min_cycle;Max_cycle;Signal;HPM_P1;HPM_P2
2022/04/17 00:01:34;;;;;;;;;;;;;;;14.20;43.54;102305.31;4929281;28;127357;-61
2022/04/17 00:04:00;;;;;;;;;;;;;;;14.17;43.71;102300.38;4920207;28;126409;-62
2022/04/17 00:06:26;;;;;;;;;;;;;;;14.14;43.72;102300.88;4920131;28;116745;-61
2022/04/17 00:08:51;;;;;;;;;;;;;;;14.13;43.80;102310.06;4920683;28;107500;-61
2022/04/17 00:11:17;;;;;;;;;;;;;;;14.11;43.80;102297.81;4918262;28;129073;-61
2022/04/17 00:13:44;;;;;;;;;;;;;;;14.08;43.94;102299.16;4902463;28;124189;-61
2022/04/17 00:16:10;;;;;;;;;;;;;;;14.07;43.85;102307.50;4936157;28;97807;-61
2022/04/17 00:18:36;;;;;;;;;;;;;;;14.05;43.90;102305.06;4920138;28;126781;-61
2022/04/17 00:21:03;;;;;;;;;;;;;;;14.02;43.80;102300.13;4928575;28;98222;-62
2022/04/17 00:23:29;;;;;;;;;;;;;;;14.01;43.96;102298.50;4935224;28;119488;-61
2022/04/17 00:25:55;;;;;;;;;;;;;;;13.99;44.07;102290.63;4922622;28;97991;-61
2022/04/17 00:28:21;;;;;;;;;;;;;;;13.96;43.76;102290.28;4903902;28;99763;-62
2022/04/17 00:30:47;;;;;;;;;;;;;;;13.95;43.96;102285.91;4900655;28;128089;-62
2022/04/17 00:33:13;;;;;;;;;;;;;;;13.92;44.04;102295.38;4914609;28;127377;-61
2022/04/17 00:35:41;;;;;;;;;;;;;;;13.90;43.84;102283.94;4899387;28;98010;-61
2022/04/17 00:38:06;;;;;;;;;;;;;;;13.89;43.94;102285.00;4901685;28;98502;-62
2022/04/17 00:40:32;;;;;;;;;;;;;;;13.87;43.93;102287.16;4917456;28;127389;-61
2022/04/17 00:42:59;;;;;;;;;;;;;;;13.85;43.88;102275.72;4919780;28;127535;-62
2022/04/17 00:45:25;;;;;;;;;;;;;;;13.84;44.07;102286.81;4924574;28;98375;-62
2022/04/17 00:47:51;;;;;;;;;;;;;;;13.82;43.94;102286.22;4922503;28;123940;-61
2022/04/17 00:50:18;;;;;;;;;;;;;;;13.80;44.09;102283.78;4923615;28;126807;-61
2022/04/17 00:52:44;;;;;;;;;;;;;;;13.78;43.96;102285.09;4938743;28;97979;-61
2022/04/17 00:55:10;;;;;;;;;;;;;;;13.74;44.03;102277.44;4924197;28;118021;-61
2022/04/17 00:57:36;;;;;;;;;;;;;;;13.72;44.03;102279.59;4925533;28;98038;-62
2022/04/17 01:00:03;;;;;;;;;;;;;;;13.70;43.91;102272.75;4944879;28;98539;-61
2022/04/17 01:02:29;;;;;;;;;;;;;;;13.70;43.98;102283.59;4927063;28;115996;-61
2022/04/17 01:04:55;;;;;;;;;;;;;;;13.67;44.00;102284.06;4923677;28;97993;-61
2022/04/17 01:07:22;;;;;;;;;;;;;;;13.64;44.29;102271.03;4923620;28;98562;-63
2022/04/17 01:09:48;;;;;;;;;;;;;;;13.62;44.05;102273.16;4923721;28;99259;-61
2022/04/17 01:12:14;;;;;;;;;;;;;;;13.60;44.14;102280.72;4921171;28;128028;-61
2022/04/17 01:14:41;;;;;;;;;;;;;;;13.59;44.20;102277.16;4938306;28;108127;-60
2022/04/17 01:17:07;;;;;;;;;;;;;;;13.58;44.10;102280.13;4922920;28;98176;-62
2022/04/17 01:19:37;;;;;;;;;;;;;;;13.56;44.01;102268.69;4927016;28;122376;-61
2022/04/17 01:22:04;;;;;;;;;;;;;;;13.53;43.95;102267.31;4943390;28;98302;-61
2022/04/17 01:27:15;;;;;;;;;;;;;;;13.49;43.93;102264.28;4933559;28;97994;-62
2022/04/17 01:29:41;;;;;;;;;;;;;;;13.47;44.04;102263.69;4919108;28;128412;-62
2022/04/17 01:32:08;;;;;;;;;;;;;;;13.45;43.89;102262.28;4919854;28;126534;-62
2022/04/17 01:34:34;;;;;;;;;;;;;;;13.43;44.17;102259.81;4937965;28;97964;-61
2022/04/17 01:37:01;;;;;;;;;;;;;;;13.41;44.11;102261.97;4923419;28;98973;-62
2022/04/17 01:39:27;;;;;;;;;;;;;;;13.39;44.02;102255.94;4924239;28;98644;-61
2022/04/17 01:41:54;;;;;;;;;;;;;;;13.38;44.11;102259.72;4923569;28;97883;-62
2022/04/17 01:44:20;;;;;;;;;;;;;;;13.36;44.00;102263.72;4924544;28;97888;-62
2022/04/17 01:46:46;;;;;;;;;;;;;;;13.34;44.06;102264.00;4922366;28;98540;-62
2022/04/17 01:49:12;;;;;;;;;;;;;;;13.31;44.02;102261.75;4923993;28;98843;-61
2022/04/17 01:51:39;;;;;;;;;;;;;;;13.30;43.98;102259.31;4923137;28;97817;-61
2022/04/17 01:54:06;;;;;;;;;;;;;;;13.27;44.03;102266.84;4922426;28;98166;-61
2022/04/17 01:56:32;;;;;;;;;;;;;;;13.26;43.85;102269.78;4931094;28;98189;-61
2022/04/17 01:58:58;;;;;;;;;;;;;;;13.24;44.14;102274.63;4936548;28;127327;-61
2022/04/17 02:01:24;;;;;;;;;;;;;;;13.22;43.94;102265.91;4924257;28;97874;-61
2022/04/17 02:03:50;;;;;;;;;;;;;;;13.20;44.09;102271.56;4921637;28;115022;-61
2022/04/17 02:06:16;;;;;;;;;;;;;;;13.20;44.05;102273.41;4936795;28;127219;-62
2022/04/17 02:08:44;;;;;;;;;;;;;;;13.18;44.13;102272.84;4919806;28;98562;-61
2022/04/17 02:11:10;;;;;;;;;;;;;;;13.16;43.93;102261.44;4923154;28;98297;-62
2022/04/17 02:13:36;;;;;;;;;;;;;;;13.15;44.17;102263.31;4922136;28;112478;-61
2022/04/17 02:16:03;;;;;;;;;;;;;;;13.14;44.01;102263.56;4921257;28;98687;-61
2022/04/17 02:18:29;;;;;;;;;;;;;;;13.13;44.21;102261.94;4922477;28;98094;-61
2022/04/17 02:20:55;;;;;;;;;;;;;;;13.11;44.01;102261.34;4936789;28;128086;-61
2022/04/17 02:23:21;;;;;;;;;;;;;;;13.09;44.04;102261.59;4924039;28;98407;-62
2022/04/17 02:25:46;;;;;;;;;;;;;;;13.09;44.11;102264.31;4920823;28;128865;-61
2022/04/17 02:28:15;;;;;;;;;;;;;;;13.07;44.06;102266.41;4921513;28;127839;-61
2022/04/17 02:30:41;;;;;;;;;;;;;;;13.06;44.00;102261.25;4921694;28;97965;-62
2022/04/17 02:33:07;;;;;;;;;;;;;;;13.04;44.08;102258.75;4921129;28;116538;-61
2022/04/17 02:35:33;;;;;;;;;;;;;;;13.03;44.07;102257.13;4921032;28;127327;-60
2022/04/17 02:37:59;;;;;;;;;;;;;;;13.01;44.14;102251.97;4920906;28;128255;-62
2022/04/17 02:40:25;;;;;;;;;;;;;;;12.99;44.09;102256.78;4919504;28;128205;-60
2022/04/17 02:42:53;;;;;;;;;;;;;;;12.99;44.09;102254.06;4921976;28;97858;-60
2022/04/17 02:45:19;;;;;;;;;;;;;;;13.04;44.00;102258.75;4922022;28;98309;-62
2022/04/17 02:47:46;;;;;;;;;;;;;;;13.11;44.01;102258.63;4902611;28;128557;-61
2022/04/17 02:50:13;;;;;;;;;;;;;;;13.16;44.07;102251.41;4923029;28;98549;-61
2022/04/17 02:52:39;;;;;;;;;;;;;;;13.21;43.86;102253.44;4922329;28;98217;-61
2022/04/17 02:55:05;;;;;;;;;;;;;;;13.25;43.78;102257.31;4921740;28;127966;-62
2022/04/17 02:57:31;;;;;;;;;;;;;;;13.27;43.84;102257.88;4915839;28;99871;-61
2022/04/17 02:59:58;;;;;;;;;;;;;;;13.30;43.73;102256.59;4902017;28;127526;-62
2022/04/17 03:07:53;;;;;;;;;;;;;;;13.32;43.88;102273.41;4920406;28;98397;-63
2022/04/17 03:10:19;;;;;;;;;;;;;;;13.31;43.67;102269.88;4935623;28;101091;-60
2022/04/17 03:12:45;;;;;;;;;;;;;;;13.33;43.68;102265.06;4922158;28;98613;-62
2022/04/17 03:15:11;;;;;;;;;;;;;;;13.31;43.89;102267.16;4921824;28;110992;-61
2022/04/17 03:17:37;;;;;;;;;;;;;;;13.31;43.74;102269.06;4920709;28;127986;-60
2022/04/17 03:20:07;;;;;;;;;;;;;;;13.30;43.73;102268.25;4935295;28;110624;-61
2022/04/17 03:22:33;;;;;;;;;;;;;;;13.29;43.76;102260.38;4902951;28;97982;-61
2022/04/17 03:25:00;;;;;;;;;;;;;;;13.27;43.62;102260.59;4902983;28;98527;-60
2022/04/17 03:27:28;;;;;;;;;;;;;;;13.26;43.68;102267.09;4911687;28;98504;-61
2022/04/17 03:29:54;;;;;;;;;;;;;;;13.24;43.67;102259.22;4921994;28;97923;-62
2022/04/17 03:32:20;;;;;;;;;;;;;;;13.22;43.76;102257.78;4921529;28;98041;-62
2022/04/17 03:34:46;;;;;;;;;;;;;;;13.20;43.56;102258.03;4920748;28;112404;-62
2022/04/17 03:37:14;;;;;;;;;;;;;;;13.17;43.69;102255.78;4921036;28;97883;-61
2022/04/17 03:39:40;;;;;;;;;;;;;;;13.16;43.98;102259.53;4918706;28;98018;-62
2022/04/17 03:42:06;;;;;;;;;;;;;;;13.15;43.70;102267.91;4920296;28;117996;-61
2022/04/17 03:44:33;;;;;;;;;;;;;;;13.12;43.51;102271.91;4921925;28;98419;-61
2022/04/17 03:46:59;;;;;;;;;;;;;;;13.10;43.66;102262.41;4920534;28;98222;-60
2022/04/17 03:49:25;;;;;;;;;;;;;;;13.08;43.75;102253.69;4920853;28;108827;-61
2022/04/17 03:51:51;;;;;;;;;;;;;;;13.06;43.59;102250.41;4920436;28;112149;-62
2022/04/17 03:54:17;;;;;;;;;;;;;;;13.05;43.55;102248.75;4918799;28;128650;-61
2022/04/17 03:56:44;;;;;;;;;;;;;;;13.02;43.61;102245.47;4932353;28;127046;-62
2022/04/17 03:59:10;;;;;;;;;;;;;;;13.00;43.68;102250.31;4937091;28;98141;-61
2022/04/17 04:01:36;;;;;;;;;;;;;;;12.99;43.67;102248.66;4934887;28;117672;-62
2022/04/17 04:04:02;;;;;;;;;;;;;;;12.97;43.47;102252.69;4934741;28;127021;-62
2022/04/17 04:06:28;;;;;;;;;;;;;;;12.95;43.66;102261.03;4920664;28;128524;-61
2022/04/17 04:08:54;;;;;;;;;;;;;;;12.94;43.72;102256.69;4921519;28;115132;-61
2022/04/17 04:11:20;;;;;;;;;;;;;;;12.93;43.77;102260.47;4920278;28;112759;-61
2022/04/17 04:13:46;;;;;;;;;;;;;;;12.93;43.60;102257.75;4934238;28;130049;-60
2022/04/17 04:16:12;;;;;;;;;;;;;;;12.91;43.74;102249.03;4920667;28;98696;-62
2022/04/17 04:18:37;;;;;;;;;;;;;;;12.92;43.73;102250.69;4920181;28;127764;-61
2022/04/17 04:21:04;;;;;;;;;;;;;;;12.92;43.58;102244.44;4937135;28;117333;-61
2022/04/17 04:23:36;;;;;;;;;;;;;;;12.93;43.61;102240.66;4940064;28;127228;-61
2022/04/17 04:26:02;;;;;;;;;;;;;;;12.94;43.69;102243.16;4934028;28;103001;-62
2022/04/17 04:28:36;;;;;;;;;;;;;;;12.95;43.65;102243.97;4920579;28;98633;-61
2022/04/17 04:31:02;;;;;;;;;;;;;;;12.96;43.73;102237.50;4921275;28;97913;-61
2022/04/17 04:33:31;;;;;;;;;;;;;;;12.97;43.47;102236.44;4921303;28;98310;-60
2022/04/17 04:35:59;;;;;;;;;;;;;;;12.98;43.66;102230.78;4935275;28;98859;-60
2022/04/17 04:38:26;;;;;;;;;;;;;;;12.99;43.67;102229.72;4920972;28;98271;-60
2022/04/17 04:40:52;;;;;;;;;;;;;;;13.00;43.76;102234.06;4921121;28;98016;-60
2022/04/17 04:43:18;;;;;;;;;;;;;;;13.03;43.67;102227.34;4920739;28;128875;-60
2022/04/17 04:51:13;;;;;;;;;;;;;;;13.06;43.75;102215.22;4931165;28;97767;-61
2022/04/17 04:53:40;;;;;;;;;;;;;;;13.08;43.69;102216.59;4919656;28;128387;-61
2022/04/17 04:56:06;;;;;;;;;;;;;;;13.11;43.64;102218.03;4927034;28;121735;-61
2022/04/17 04:58:32;;;;;;;;;;;;;;;13.13;43.68;102221.31;4938350;28;98436;-60
2022/04/17 05:00:58;;;;;;;;;;;;;;;13.14;43.76;102223.78;4934355;28;118658;-61
2022/04/17 05:03:25;;;;;;;;;;;;;;;13.18;43.56;102219.53;4919918;28;128691;-61
2022/04/17 05:05:51;;;;;;;;;;;;;;;13.22;43.65;102217.16;4920177;28;98452;-60
2022/04/17 05:08:18;;;;;;;;;;;;;;;13.25;43.68;102214.81;4920217;28;111390;-60
2022/04/17 05:10:47;;;;;;;;;;;;;;;13.30;43.76;102208.66;4920417;28;97901;-62
2022/04/17 05:13:13;;;;;;;;;;;;;;;13.39;43.60;102215.31;4920491;28;98393;-60
2022/04/17 05:15:39;;;;;;;;;;;;;;;13.45;43.51;102197.28;4934790;28;99206;-60
2022/04/17 05:18:05;;;;;;;;;;;;;;;13.51;43.52;102205.22;4933660;28;114301;-60
2022/04/17 05:20:32;;;;;;;;;;;;;;;13.61;43.69;102198.38;4932730;28;98058;-61
2022/04/17 05:23:04;;;;;;;;;;;;;;;13.70;43.38;102192.28;4935071;28;99326;-61
2022/04/17 05:25:30;;;;;;;;;;;;;;;13.80;43.34;102183.50;4920283;28;98870;-61
2022/04/17 05:27:56;;;;;;;;;;;;;;;13.87;43.41;102188.72;4905568;28;98526;-60
2022/04/17 05:30:22;;;;;;;;;;;;;;;13.94;43.39;102192.09;4904462;28;117495;-61
2022/04/17 05:32:48;;;;;;;;;;;;;;;13.98;43.69;102187.81;4923004;28;128136;-62
2022/04/17 05:35:14;;;;;;;;;;;;;;;14.07;43.22;102193.63;4922842;28;126988;-62
2022/04/17 05:37:40;;;;;;;;;;;;;;;14.17;43.61;102193.78;4921782;28;127248;-61
2022/04/17 05:40:06;;;;;;;;;;;;;;;14.28;43.61;102197.47;4923136;28;117760;-61
2022/04/17 05:42:32;;;;;;;;;;;;;;;14.36;43.52;102194.34;4922271;28;124686;-61
2022/04/17 05:44:58;;;;;;;;;;;;;;;14.44;43.29;102196.59;4936967;28;127255;-62
2022/04/17 05:47:23;;;;;;;;;;;;;;;14.54;43.15;102195.94;4921466;28;128006;-62
2022/04/17 05:49:49;;;;;;;;;;;;;;;14.67;43.28;102196.38;4920835;28;117063;-62
2022/04/17 05:52:15;;;;;;;;;;;;;;;14.83;43.39;102197.38;4917041;28;127384;-61
2022/04/17 05:54:43;;;;;;;;;;;;;;;15.02;43.18;102194.34;4912881;28;98818;-61
2022/04/17 05:57:09;;;;;;;;;;;;;;;15.20;42.91;102196.69;4919939;28;98140;-61
2022/04/17 05:59:36;;;;;;;;;;;;;;;15.37;43.17;102191.16;4924328;28;97786;-61
2022/04/17 06:02:03;;;;;;;;;;;;;;;15.53;43.01;102183.97;4922012;28;98088;-61
2022/04/17 06:04:29;;;;;;;;;;;;;;;15.70;42.68;102195.53;4922961;28;98572;-61
2022/04/17 06:06:55;;;;;;;;;;;;;;;15.88;42.64;102197.84;4921953;28;126708;-62
2022/04/17 06:09:21;;;;;;;;;;;;;;;16.08;42.58;102196.34;4922426;28;117104;-61
2022/04/17 06:11:47;;;;;;;;;;;;;;;16.26;42.62;102195.91;4921216;28;126428;-60
2022/04/17 06:14:13;;;;;;;;;;;;;;;16.49;42.47;102204.72;4922255;28;128105;-61
2022/04/17 06:16:40;;;;;;;;;;;;;;;16.70;42.37;102198.28;4921995;28;127685;-61
2022/04/17 06:19:09;;;;;;;;;;;;;;;16.91;42.16;102201.94;4923638;28;97838;-61
2022/04/17 06:21:36;;;;;;;;;;;;;;;17.11;42.04;102196.53;4939432;28;99631;-62
2022/04/17 06:24:01;;;;;;;;;;;;;;;17.29;42.10;102197.94;4921582;28;127123;-61
2022/04/17 06:26:27;;;;;;;;;;;;;;;17.51;42.07;102200.38;4922147;28;127938;-62
2022/04/17 06:28:53;;;;;;;;;;;;;;;17.71;42.06;102191.38;4923192;28;104669;-61
2022/04/17 06:31:19;;;;;;;;;;;;;;;17.96;41.70;102201.50;4923010;28;98494;-62
2022/04/17 06:33:45;;;;;;;;;;;;;;;18.29;41.45;102196.50;4921197;28;125113;-61
2022/04/17 06:36:11;;;;;;;;;;;;;;;18.74;41.26;102190.06;4920788;28;128167;-61
2022/04/17 06:38:37;;;;;;;;;;;;;;;19.36;40.62;102190.50;4920527;28;115684;-61
2022/04/17 06:41:03;;;;;;;;;;;;;;;19.84;40.12;102191.47;4920710;28;127557;-61
2022/04/17 06:43:29;;;;;;;;;;;;;;;20.38;39.69;102196.94;4922034;28;97733;-62
2022/04/17 06:45:55;;;;;;;;;;;;;;;20.79;39.76;102194.53;4921948;28;97743;-62
2022/04/17 06:48:22;;;;;;;;;;;;;;;21.25;39.31;102193.84;4921927;28;97770;-61
2022/04/17 06:50:49;;;;;;;;;;;;;;;22.00;38.66;102199.16;4922012;28;97791;-61
2022/04/17 06:53:15;;;;;;;;;;;;;;;22.62;38.15;102201.53;4922205;28;98827;-60
2022/04/17 06:55:41;;;;;;;;;;;;;;;22.93;37.85;102198.16;4927004;28;97911;-60
2022/04/17 06:58:08;;;;;;;;;;;;;;;23.02;38.14;102199.03;4941812;28;97779;-61
2022/04/17 07:00:33;;;;;;;;;;;;;;;23.00;38.41;102198.56;4942206;28;98319;-62
2022/04/17 07:02:59;;;;;;;;;;;;;;;23.01;38.46;102202.94;4940069;28;127343;-61
2022/04/17 07:05:25;;;;;;;;;;;;;;;22.93;38.80;102209.16;4920228;28;128282;-61
2022/04/17 07:08:02;;;;;;;;;;;;;;;22.92;38.89;102210.28;4921666;28;97829;-61
2022/04/17 07:10:28;;;;;;;;;;;;;;;22.94;38.90;102208.84;4921747;28;98848;-62
2022/04/17 07:12:54;;;;;;;;;;;;;;;22.88;39.10;102210.06;4918320;28;98634;-61
2022/04/17 07:15:21;;;;;;;;;;;;;;;22.88;39.10;102201.81;4917815;28;99853;-61
2022/04/17 07:17:46;;;;;;;;;;;;;;;22.88;38.96;102204.56;4918250;28;98251;-61
2022/04/17 07:20:12;;;;;;;;;;;;;;;22.83;39.28;102204.66;4919526;28;128275;-61
2022/04/17 07:22:40;;;;;;;;;;;;;;;22.80;39.14;102202.56;4917169;28;128061;-60
2022/04/17 07:25:06;;;;;;;;;;;;;;;22.81;39.08;102206.09;4917514;28;98310;-60
2022/04/17 07:27:36;;;;;;;;;;;;;;;22.91;38.91;102205.91;4915987;28;115974;-61
2022/04/17 07:30:03;;;;;;;;;;;;;;;23.03;38.61;102206.19;4918208;28;98579;-62
2022/04/17 07:32:30;;;;;;;;;;;;;;;23.13;38.40;102205.13;4917322;28;103821;-61
2022/04/17 07:34:56;;;;;;;;;;;;;;;23.23;38.29;102197.47;4918306;28;98723;-60
2022/04/17 07:37:31;;;;;;;;;;;;;;;23.32;38.56;102202.22;4916256;28;115540;-61
2022/04/17 07:39:57;;;;;;;;;;;;;;;23.46;38.25;102203.78;4918188;28;99070;-60
2022/04/17 07:42:23;;;;;;;;;;;;;;;23.64;38.14;102196.44;4917517;28;120252;-61
2022/04/17 07:44:49;;;;;;;;;;;;;;;23.79;38.08;102191.72;4917153;28;127396;-62
2022/04/17 07:47:16;;;;;;;;;;;;;;;24.03;37.98;102194.09;4916032;28;117777;-61
2022/04/17 07:49:43;;;;;;;;;;;;;;;24.28;38.04;102190.59;4915530;28;98346;-62
2022/04/17 07:52:09;;;;;;;;;;;;;;;24.43;38.05;102187.44;4916851;28;99345;-62
2022/04/17 07:54:35;;;;;;;;;;;;;;;24.61;38.05;102195.78;4916149;28;125527;-61
2022/04/17 07:57:00;;;;;;;;;;;;;;;24.69;37.90;102194.97;4923699;28;117001;-61
2022/04/17 07:59:26;;;;;;;;;;;;;;;24.93;37.98;102187.03;4917745;28;128257;-61
2022/04/17 08:02:01;;;;;;;;;;;;;;;25.40;37.66;102184.44;4917049;28;127788;-61
2022/04/17 08:04:27;;;;;;;;;;;;;;;25.86;37.14;102187.59;4917774;28;98198;-61
2022/04/17 08:06:54;;;;;;;;;;;;;;;26.77;36.24;102182.63;4917005;28;111909;-61
2022/04/17 08:09:20;;;;;;;;;;;;;;;27.79;35.50;102184.00;4917830;28;99456;-61
2022/04/17 08:11:51;;;;;;;;;;;;;;;28.34;35.31;102183.44;4915803;28;128687;-63
2022/04/17 08:14:18;;;;;;;;;;;;;;;29.24;34.79;102186.13;4917340;28;98066;-61
2022/04/17 08:16:44;;;;;;;;;;;;;;;30.11;34.05;102182.50;4917213;28;97887;-62
2022/04/17 08:19:10;;;;;;;;;;;;;;;30.72;33.95;102183.91;4916582;28;125059;-61
2022/04/17 08:21:36;;;;;;;;;;;;;;;31.26;33.48;102177.47;4919699;28;97876;-62
2022/04/17 08:24:02;;;;;;;;;;;;;;;31.41;33.50;102175.81;4916626;28;126518;-62
2022/04/17 08:26:28;;;;;;;;;;;;;;;32.24;32.61;102173.25;4918063;28;98319;-61
2022/04/17 08:28:54;;;;;;;;;;;;;;;32.37;32.74;102174.63;4916400;28;128505;-61
2022/04/17 08:31:20;;;;;;;;;;;;;;;32.21;32.97;102174.00;4916838;28;128060;-62
2022/04/17 08:33:46;;;;;;;;;;;;;;;32.08;33.16;102164.22;4913074;28;127823;-62
2022/04/17 08:36:12;;;;;;;;;;;;;;;32.26;32.71;102160.50;4917028;28;98077;-62
2022/04/17 08:38:40;;;;;;;;;;;;;;;32.96;31.99;102158.31;4916033;28;98144;-61
2022/04/17 08:41:06;;;;;;;;;;;;;;;33.77;31.22;102165.94;4915259;28;98534;-63
2022/04/17 08:43:32;;;;;;;;;;;;;;;34.03;31.02;102152.97;4916107;28;114109;-63
2022/04/17 08:45:58;;;;;;;;;;;;;;;34.16;31.43;102151.47;4900097;28;98127;-62
2022/04/17 08:48:24;;;;;;;;;;;;;;;34.43;31.04;102152.03;4896733;28;128877;-61
2022/04/17 08:50:51;;;;;;;;;;;;;;;34.34;31.02;102143.97;4914441;28;104182;-62
2022/04/17 08:53:18;;;;;;;;;;;;;;;33.95;31.25;102141.69;4917196;28;98455;-61
2022/04/17 08:55:44;;;;;;;;;;;;;;;33.82;31.76;102137.63;4921010;28;97985;-60
2022/04/17 08:58:11;;;;;;;;;;;;;;;33.52;31.60;102126.59;4931948;28;98514;-62
2022/04/17 09:00:36;;;;;;;;;;;;;;;33.78;30.98;102131.19;4917116;28;98556;-61
2022/04/17 09:03:02;;;;;;;;;;;;;;;33.77;31.26;102121.22;4915287;28;125580;-61
2022/04/17 09:05:28;;;;;;;;;;;;;;;34.66;30.44;102123.75;4919593;28;98198;-60
2022/04/17 09:07:54;;;;;;;;;;;;;;;34.59;30.35;102116.16;4917725;28;128061;-61
2022/04/17 09:10:24;;;;;;;;;;;;;;;34.00;31.29;102111.81;4919991;28;99131;-61
2022/04/17 09:12:55;;;;;;;;;;;;;;;33.95;30.64;102105.34;4919001;28;98223;-62
2022/04/17 09:15:25;;;;;;;;;;;;;;;34.04;30.84;102105.06;4918738;28;97935;-61
2022/04/17 09:17:51;;;;;;;;;;;;;;;34.37;30.67;102103.22;4919868;28;99101;-62
2022/04/17 09:20:24;;;;;;;;;;;;;;;34.20;30.39;102101.94;4934924;28;127889;-62
2022/04/17 09:22:54;;;;;;;;;;;;;;;34.56;30.56;102090.97;4919775;28;97890;-61
2022/04/17 09:25:23;;;;;;;;;;;;;;;34.54;30.61;102091.34;4920170;28;98429;-62
2022/04/17 09:28:01;;;;;;;;;;;;;;;35.87;28.94;102084.72;4920254;28;99048;-62
2022/04/17 09:30:40;;;;;;;;;;;;;;;36.88;28.48;102078.75;4934226;28;97902;-61
2022/04/17 09:33:09;;;;;;;;;;;;;;;39.15;26.50;102083.19;4919774;28;97947;-61
2022/04/17 09:35:35;;;;;;;;;;;;;;;40.88;25.50;102084.31;4919862;28;97968;-61
2022/04/17 09:38:03;;;;;;;;;;;;;;;41.96;24.94;102076.72;4920117;28;100220;-61
2022/04/17 09:40:31;;;;;;;;;;;;;;;43.37;24.09;102073.53;4920213;28;98176;-62
2022/04/17 09:43:16;;;;;;;;;;;;;;;44.29;23.79;102071.47;4919082;28;98419;-61
2022/04/17 09:46:02;;;;;;;;;;;;;;;44.99;23.81;102060.56;4918728;28;116400;-62
2022/04/17 09:48:38;;;;;;;;;;;;;;;45.63;23.36;102054.19;4918807;28;97975;-62
2022/04/17 09:51:22;;;;;;;;;;;;;;;46.94;22.76;102057.78;4918055;28;98551;-64
2022/04/17 09:53:59;;;;;;;;;;;;;;;47.58;22.41;102050.81;4923261;28;98481;-61
2022/04/17 09:56:35;;;;;;;;;;;;;;;48.25;22.15;102039.03;4922642;28;98578;-62
2022/04/17 09:59:14;;;;;;;;;;;;;;;48.63;21.70;102026.66;4918320;28;98763;-61
2022/04/17 10:01:40;;;;;;;;;;;;;;;49.23;21.27;102016.53;4920320;28;98725;-59
2022/04/17 10:04:06;;;;;;;;;;;;;;;49.81;21.17;102017.41;4911472;28;127020;-60
2022/04/17 10:06:33;;;;;;;;;;;;;;;50.06;20.75;102007.22;4917041;28;118956;-60
2022/04/17 10:08:59;;;;;;;;;;;;;;;50.16;20.98;102004.97;4933025;28;125128;-61
2022/04/17 10:11:24;;;;;;;;;;;;;;;50.39;20.54;101996.53;4916552;28;127277;-60
2022/04/17 10:13:51;;;;;;;;;;;;;;;50.65;20.35;101987.84;4932786;28;127165;-61
2022/04/17 10:16:16;;;;;;;;;;;;;;;50.87;20.14;101984.28;4933430;28;97916;-62
2022/04/17 10:18:42;;;;;;;;;;;;;;;51.20;19.83;101986.50;4914909;28;127370;-60
2022/04/17 10:21:09;;;;;;;;;;;;;;;51.34;19.61;101979.78;4917351;28;107865;-60
2022/04/17 10:23:36;;;;;;;;;;;;;;;51.59;19.30;101968.59;4919103;28;98514;-61
2022/04/17 10:26:03;;;;;;;;;;;;;;;51.64;19.66;101973.53;4919499;28;98062;-61
2022/04/17 10:28:37;;;;;;;;;;;;;;;51.87;19.62;101966.47;4916513;28;97993;-60
2022/04/17 10:31:20;;;;;;;;;;;;;;;51.88;19.30;101959.41;4916131;28;119938;-61
2022/04/17 10:34:23;;;;;;;;;;;;;;;51.81;19.33;101954.22;4918699;28;98103;-62
2022/04/17 10:37:10;;;;;;;;;;;;;;;51.78;19.01;101953.19;4919607;28;97897;-60
2022/04/17 10:39:38;;;;;;;;;;;;;;;51.54;19.02;101947.16;4921017;28;98912;-62
2022/04/17 10:42:07;;;;;;;;;;;;;;;51.48;19.40;101941.41;4932637;28;112615;-62
2022/04/17 10:44:37;;;;;;;;;;;;;;;51.24;19.56;101935.38;4917519;28;97903;-62
2022/04/17 10:47:05;;;;;;;;;;;;;;;51.28;19.07;101922.34;4918147;28;97953;-63
2022/04/17 10:49:32;;;;;;;;;;;;;;;51.30;19.43;101931.22;4918136;28;98911;-61
2022/04/17 10:51:58;;;;;;;;;;;;;;;51.18;19.35;101917.38;4918431;28;98321;-60
2022/04/17 10:54:25;;;;;;;;;;;;;;;50.92;19.05;101917.56;4918384;28;98297;-61
2022/04/17 10:56:54;;;;;;;;;;;;;;;50.56;19.32;101920.81;4923555;28;102521;-62
2022/04/17 10:59:27;;;;;;;;;;;;;;;48.61;20.59;101912.78;4918514;28;98459;-62
2022/04/17 11:01:54;;;;;;;;;;;;;;;48.31;20.47;101912.13;4916371;28;127054;-63
2022/04/17 11:04:22;;;;;;;;;;;;;;;47.52;20.55;101903.56;4918133;28;97688;-61
2022/04/17 11:06:52;;;;;;;;;;;;;;;47.77;20.36;101900.13;4919299;28;97922;-62
2022/04/17 11:09:23;;;;;;;;;;;;;;;47.27;20.54;101896.38;4912116;28;98164;-61
2022/04/17 11:11:49;;;;;;;;;;;;;;;47.16;20.35;101899.78;4917298;28;98074;-61
2022/04/17 11:14:23;;;;;;;;;;;;;;;47.16;20.66;101897.72;4913904;28;98353;-62
2022/04/17 11:16:50;;;;;;;;;;;;;;;47.29;20.45;101900.31;4918778;28;97771;-62
2022/04/17 11:19:18;;;;;;;;;;;;;;;47.19;20.21;101896.75;4934261;28;99604;-62
2022/04/17 11:21:45;;;;;;;;;;;;;;;46.46;20.67;101895.25;4919712;28;128072;-62
2022/04/17 11:24:11;;;;;;;;;;;;;;;46.51;20.74;101896.63;4933319;28;98030;-61
2022/04/17 11:26:52;;;;;;;;;;;;;;;45.12;21.57;101894.72;4917642;28;98255;-62
2022/04/17 11:29:38;;;;;;;;;;;;;;;44.20;21.70;101880.34;4918132;28;99076;-61
2022/04/17 11:32:16;;;;;;;;;;;;;;;44.91;21.18;101871.63;4917400;28;98301;-61
2022/04/17 11:34:52;;;;;;;;;;;;;;;44.77;20.79;101875.13;4916654;28;98008;-61
2022/04/17 11:37:18;;;;;;;;;;;;;;;44.61;21.06;101873.34;4918100;28;98088;-61
2022/04/17 11:39:45;;;;;;;;;;;;;;;44.57;21.34;101867.81;4918057;28;121880;-62
2022/04/17 11:42:11;;;;;;;;;;;;;;;44.62;21.36;101871.31;4916647;28;126512;-64
2022/04/17 11:44:41;;;;;;;;;;;;;;;44.70;21.40;101864.06;4916679;28;123517;-61
2022/04/17 11:47:10;;;;;;;;;;;;;;;44.80;21.37;101866.41;4931931;28;98387;-63
2022/04/17 11:49:40;;;;;;;;;;;;;;;44.99;21.17;101849.38;4918064;28;98550;-61
2022/04/17 11:52:12;;;;;;;;;;;;;;;45.33;21.24;101847.44;4931579;28;125844;-62
2022/04/17 11:54:38;;;;;;;;;;;;;;;45.61;21.21;101854.66;4914346;28;97851;-61
2022/04/17 11:57:04;;;;;;;;;;;;;;;45.76;21.12;101846.22;4932215;28;98281;-61
2022/04/17 11:59:43;;;;;;;;;;;;;;;45.28;21.26;101840.34;4916951;28;121802;-62
2022/04/17 12:02:10;;;;;;;;;;;;;;;45.17;21.57;101820.16;4916990;28;99272;-61
2022/04/17 12:04:36;;;;;;;;;;;;;;;45.42;21.38;101833.97;4917316;28;97753;-62
2022/04/17 12:07:02;;;;;;;;;;;;;;;44.67;21.69;101828.84;4916673;28;117663;-61
2022/04/17 12:09:28;;;;;;;;;;;;;;;44.33;21.79;101821.38;4917387;28;97991;-62
2022/04/17 12:11:54;;;;;;;;;;;;;;;44.06;22.21;101814.38;4916556;28;126971;-62
2022/04/17 12:14:30;;;;;;;;;;;;;;;44.02;21.69;101813.72;4916777;28;127614;-62
2022/04/17 12:16:56;;;;;;;;;;;;;;;44.04;21.74;101808.34;4916118;28;115041;-61
2022/04/17 12:19:22;;;;;;;;;;;;;;;43.98;22.07;101796.06;4919041;28;98982;-62
2022/04/17 12:21:48;;;;;;;;;;;;;;;43.36;22.19;101793.22;4913805;28;124810;-61
2022/04/17 12:24:14;;;;;;;;;;;;;;;43.69;21.71;101802.06;4914733;28;127764;-62
2022/04/17 12:26:41;;;;;;;;;;;;;;;43.79;21.65;101809.38;4915183;28;98553;-60
2022/04/17 12:29:07;;;;;;;;;;;;;;;43.17;22.37;101798.00;4930688;28;128183;-60
2022/04/17 12:31:36;;;;;;;;;;;;;;;43.05;21.97;101802.47;4916932;28;98449;-62
2022/04/17 12:34:13;;;;;;;;;;;;;;;43.14;21.95;101790.41;4931355;28;98185;-61
2022/04/17 12:36:40;;;;;;;;;;;;;;;42.46;22.68;101784.34;4918721;28;97858;-60
2022/04/17 12:39:07;;;;;;;;;;;;;;;41.35;22.99;101778.63;4917913;28;98834;-61
2022/04/17 12:41:40;;;;;;;;;;;;;;;40.30;23.39;101777.03;4917922;28;99340;-61
2022/04/17 12:44:07;;;;;;;;;;;;;;;39.40;23.49;101772.66;4919756;28;126673;-60
2022/04/17 12:46:33;;;;;;;;;;;;;;;38.82;23.92;101762.97;4921023;28;98810;-60
2022/04/17 12:49:12;;;;;;;;;;;;;;;37.92;23.65;101763.69;4919682;28;98015;-60